Time;durP1;ratioP1;P1;durP2;ratioP2;P2;SDS_P1;SDS_P2;PMS_P1;PMS_P2;Temp;Humidity;BMP_temperature;BMP_pressure;BME280_temperature;BME280_humidity;BME280_pressure;Samples;Min_cycle;Max_cycle;Signal;HPM_P1;HPM_P2
2021/04/22 00:00:29;;;;;;;12.95;5.07;;;7.90;54.90;;;;;;5017051;28;20054;-72
2021/04/22 00:02:54;;;;;;;16.33;5.65;;;7.90;55.00;;;;;;5017163;28;20057;-72
2021/04/22 00:05:26;;;;;;;15.57;6.35;;;7.90;54.90;;;;;;5016864;28;20478;-72
2021/04/22 00:07:53;;;;;;;16.35;5.43;;;7.90;54.90;;;;;;5017400;28;20136;-72
2021/04/22 00:10:27;;;;;;;13.65;5.60;;;7.90;54.80;;;;;;5016870;28;20037;-74
2021/04/22 00:12:53;;;;;;;11.73;5.28;;;7.90;54.80;;;;;;5017175;28;20405;-72
2021/04/22 00:15:19;;;;;;;13.15;5.35;;;7.90;54.90;;;;;;5016852;28;20042;-73
2021/04/22 00:17:45;;;;;;;13.68;5.40;;;7.90;54.80;;;;;;5035103;28;20050;-72
2021/04/22 00:20:13;;;;;;;15.68;4.97;;;7.90;55.00;;;;;;5014070;28;20108;-72
2021/04/22 00:22:39;;;;;;;15.15;4.53;;;7.90;54.90;;;;;;5013517;28;20048;-72
2021/04/22 00:25:05;;;;;;;17.08;5.28;;;7.90;54.80;;;;;;5014064;28;20045;-72
2021/04/22 00:27:32;;;;;;;14.10;4.88;;;7.90;55.00;;;;;;5014606;28;20442;-73
2021/04/22 00:29:58;;;;;;;16.90;5.47;;;7.90;55.10;;;;;;5013894;28;20042;-72
2021/04/22 00:32:23;;;;;;;16.70;5.72;;;7.90;55.10;;;;;;5014782;28;20058;-74
2021/04/22 00:34:49;;;;;;;14.93;5.72;;;7.90;55.20;;;;;;5013805;28;20057;-72
2021/04/22 00:37:15;;;;;;;14.52;4.32;;;7.90;55.20;;;;;;5013881;28;20057;-71
2021/04/22 00:39:40;;;;;;;14.43;4.90;;;7.90;55.20;;;;;;5013118;28;20056;-72
2021/04/22 00:42:06;;;;;;;12.77;5.25;;;7.90;55.40;;;;;;5015163;28;20040;-73
2021/04/22 00:44:34;;;;;;;19.13;5.80;;;7.90;55.40;;;;;;4996473;28;20038;-72
2021/04/22 00:46:59;;;;;;;12.05;4.72;;;7.90;55.40;;;;;;5013577;28;20069;-73
2021/04/22 00:49:26;;;;;;;14.95;4.72;;;8.00;55.40;;;;;;5014652;28;20072;-74
2021/04/22 00:51:52;;;;;;;10.68;4.55;;;8.00;55.50;;;;;;5013729;28;20067;-73
2021/04/22 00:54:20;;;;;;;12.75;4.43;;;8.00;55.60;;;;;;5013757;28;20042;-71
2021/04/22 00:56:46;;;;;;;8.20;4.47;;;8.00;55.60;;;;;;4996708;28;20179;-71
2021/04/22 00:59:12;;;;;;;12.25;4.93;;;7.90;55.70;;;;;;5014830;28;20065;-71
2021/04/22 01:01:38;;;;;;;14.23;4.90;;;7.90;55.70;;;;;;5014209;28;20042;-72
2021/04/22 01:04:09;;;;;;;9.55;4.78;;;7.90;55.80;;;;;;5013293;28;20124;-72
2021/04/22 01:06:35;;;;;;;13.95;4.60;;;7.90;55.80;;;;;;5013140;28;20076;-71
2021/04/22 01:09:04;;;;;;;9.15;4.43;;;7.90;55.80;;;;;;5013461;28;20125;-72
2021/04/22 01:11:31;;;;;;;12.43;5.07;;;7.90;55.90;;;;;;5011925;28;20053;-73
2021/04/22 01:13:57;;;;;;;10.95;4.50;;;7.90;55.80;;;;;;5013282;28;20076;-73
2021/04/22 01:16:26;;;;;;;12.38;4.60;;;7.90;55.90;;;;;;5014574;28;20168;-72
2021/04/22 01:18:52;;;;;;;12.98;5.50;;;7.90;55.90;;;;;;4997262;28;20057;-73
2021/04/22 01:21:24;;;;;;;12.73;5.35;;;7.90;55.90;;;;;;5015276;28;20064;-71
2021/04/22 01:23:53;;;;;;;15.02;4.63;;;7.90;56.00;;;;;;5014465;28;20049;-72
2021/04/22 01:26:22;;;;;;;12.32;4.90;;;7.90;55.90;;;;;;5014959;28;20129;-72
2021/04/22 01:28:48;;;;;;;16.73;4.85;;;7.90;56.00;;;;;;5014224;28;20177;-72
2021/04/22 01:31:14;;;;;;;13.02;4.88;;;7.90;56.00;;;;;;5014624;28;20437;-72
2021/04/22 01:33:43;;;;;;;11.88;5.18;;;7.90;56.20;;;;;;5012727;28;20050;-72
2021/04/22 01:36:09;;;;;;;14.07;4.43;;;7.90;56.20;;;;;;5014536;28;20045;-72
2021/04/22 01:38:36;;;;;;;11.23;4.57;;;7.90;56.20;;;;;;4996865;28;20071;-71
2021/04/22 01:41:02;;;;;;;9.75;3.95;;;7.90;56.20;;;;;;5013956;28;20046;-70
2021/04/22 01:43:30;;;;;;;14.23;4.57;;;7.80;56.30;;;;;;5013852;28;20455;-71
2021/04/22 01:45:56;;;;;;;16.00;4.82;;;7.90;56.40;;;;;;5013152;28;20046;-72
2021/04/22 01:48:23;;;;;;;12.52;4.15;;;7.90;56.50;;;;;;5013614;28;20045;-72
2021/04/22 01:50:49;;;;;;;12.18;4.30;;;7.90;56.50;;;;;;5012194;28;20038;-72
2021/04/22 01:53:15;;;;;;;11.80;4.28;;;7.80;56.60;;;;;;5012538;28;20048;-72
2021/04/22 01:55:42;;;;;;;11.35;4.75;;;7.80;56.60;;;;;;5012908;28;20126;-72
2021/04/22 01:58:09;;;;;;;9.77;4.15;;;7.80;56.50;;;;;;4996305;28;20100;-72
2021/04/22 02:00:42;;;;;;;10.60;3.80;;;7.90;56.60;;;;;;4995547;28;20042;-73
2021/04/22 02:03:11;;;;;;;11.02;4.25;;;7.80;56.70;;;;;;5013698;28;20038;-71
2021/04/22 02:05:39;;;;;;;10.50;4.07;;;7.80;56.60;;;;;;5012786;28;20119;-72
2021/04/22 02:08:05;;;;;;;13.82;4.45;;;7.80;56.70;;;;;;4996515;28;20046;-71
2021/04/22 02:10:32;;;;;;;11.40;4.40;;;7.80;56.60;;;;;;5012093;28;20072;-73
2021/04/22 02:12:57;;;;;;;14.07;4.28;;;7.80;56.60;;;;;;5011555;28;20104;-72
2021/04/22 02:15:28;;;;;;;12.15;4.18;;;7.80;56.70;;;;;;4995872;28;20046;-72
2021/04/22 02:17:55;;;;;;;12.00;3.90;;;7.80;56.70;;;;;;4996005;28;20108;-71
2021/04/22 02:20:21;;;;;;;9.40;3.70;;;7.80;56.90;;;;;;5012716;28;20570;-72
2021/04/22 02:22:47;;;;;;;12.68;4.47;;;7.80;56.90;;;;;;5013246;28;20113;-73
2021/04/22 02:25:14;;;;;;;11.27;3.92;;;7.80;56.90;;;;;;5016170;28;20062;-71
2021/04/22 02:27:39;;;;;;;12.90;3.67;;;7.80;56.90;;;;;;5017091;28;20050;-74
2021/04/22 02:30:08;;;;;;;10.68;3.63;;;7.90;57.00;;;;;;5016318;28;20053;-73
2021/04/22 02:32:34;;;;;;;11.05;3.60;;;7.80;57.00;;;;;;5000280;28;20072;-72
2021/04/22 02:35:00;;;;;;;9.30;4.75;;;7.80;56.80;;;;;;5016365;28;20053;-72
2021/04/22 02:37:25;;;;;;;12.73;3.92;;;7.90;56.90;;;;;;5016430;28;20046;-72
2021/04/22 02:39:51;;;;;;;12.98;3.33;;;7.90;56.90;;;;;;5016959;28;20116;-72
2021/04/22 02:42:20;;;;;;;12.30;3.42;;;7.90;56.90;;;;;;5016427;28;20034;-72
2021/04/22 02:44:48;;;;;;;13.13;4.00;;;7.90;56.70;;;;;;5015625;28;20105;-72
2021/04/22 02:47:14;;;;;;;12.13;3.70;;;7.90;56.90;;;;;;5015859;28;20073;-73
2021/04/22 02:49:40;;;;;;;8.80;3.08;;;7.90;56.80;;;;;;5016813;28;20149;-73
2021/04/22 02:52:06;;;;;;;10.38;3.22;;;7.90;56.70;;;;;;5015467;28;20053;-72
2021/04/22 02:54:31;;;;;;;13.38;4.35;;;7.90;56.80;;;;;;4999427;28;20163;-71
2021/04/22 02:56:57;;;;;;;13.20;3.30;;;7.90;56.90;;;;;;4998385;28;20064;-72
2021/04/22 02:59:23;;;;;;;12.82;3.47;;;7.90;56.90;;;;;;5000310;28;20058;-72
2021/04/22 03:01:49;;;;;;;10.75;2.85;;;7.90;56.90;;;;;;5016512;28;20100;-72
2021/04/22 03:04:15;;;;;;;9.07;3.92;;;8.00;57.00;;;;;;5016840;28;20102;-73
2021/04/22 03:06:41;;;;;;;9.63;3.40;;;7.90;56.80;;;;;;5016641;28;20049;-73
2021/04/22 03:09:09;;;;;;;10.70;3.42;;;7.90;56.80;;;;;;5017311;28;20371;-72
2021/04/22 03:11:35;;;;;;;8.93;3.03;;;7.90;56.70;;;;;;5001157;28;20038;-72
2021/04/22 03:14:03;;;;;;;11.73;3.80;;;7.90;56.80;;;;;;5016263;28;20110;-72
2021/04/22 03:16:33;;;;;;;12.13;3.10;;;7.90;56.80;;;;;;5001226;28;20453;-72
2021/04/22 03:18:58;;;;;;;10.35;3.33;;;7.90;56.70;;;;;;5015887;28;20046;-73
2021/04/22 03:21:24;;;;;;;9.90;3.50;;;7.90;56.90;;;;;;5016634;28;20053;-72
2021/04/22 03:23:50;;;;;;;10.88;3.90;;;7.90;56.80;;;;;;5016107;28;20042;-73
2021/04/22 03:26:15;;;;;;;8.77;2.63;;;7.90;56.80;;;;;;5017601;28;20061;-73
2021/04/22 03:28:41;;;;;;;9.68;3.13;;;7.90;56.70;;;;;;5017740;28;20046;-72
2021/04/22 03:31:07;;;;;;;10.85;3.13;;;7.90;56.60;;;;;;5015934;28;20146;-71
2021/04/22 03:33:33;;;;;;;9.88;2.78;;;7.80;56.40;;;;;;5017509;28;20044;-71
2021/04/22 03:35:58;;;;;;;9.75;3.00;;;7.90;56.30;;;;;;5013660;28;20045;-72
2021/04/22 03:38:24;;;;;;;11.70;3.22;;;7.90;56.20;;;;;;5015044;28;20063;-72
2021/04/22 03:40:50;;;;;;;9.63;2.67;;;7.90;56.20;;;;;;4999382;28;20054;-72
2021/04/22 03:43:16;;;;;;;10.63;2.88;;;7.90;56.20;;;;;;5016573;28;20100;-72
2021/04/22 03:45:41;;;;;;;10.73;3.45;;;7.90;56.20;;;;;;5016243;28;20419;-72
2021/04/22 03:48:07;;;;;;;10.48;2.95;;;7.90;56.30;;;;;;5017176;28;20585;-71
2021/04/22 03:50:33;;;;;;;10.25;2.95;;;7.90;56.40;;;;;;5017457;28;20037;-72
2021/04/22 03:52:59;;;;;;;10.90;2.88;;;7.90;56.50;;;;;;5016028;28;20065;-72
2021/04/22 03:55:24;;;;;;;6.88;2.53;;;7.90;56.50;;;;;;5017186;28;20566;-72
2021/04/22 03:57:50;;;;;;;6.82;2.72;;;7.90;56.60;;;;;;5017976;28;20049;-74
2021/04/22 04:00:18;;;;;;;8.80;3.00;;;7.90;56.60;;;;;;5000649;28;20418;-71
2021/04/22 04:02:45;;;;;;;12.88;2.85;;;7.90;56.70;;;;;;5016538;28;20083;-72
2021/04/22 04:05:11;;;;;;;12.48;3.28;;;7.80;56.60;;;;;;5015759;28;20412;-71
2021/04/22 04:07:36;;;;;;;11.98;3.00;;;7.90;56.70;;;;;;5016832;28;20041;-72
2021/04/22 04:10:06;;;;;;;9.63;2.88;;;7.90;56.80;;;;;;5016299;28;20046;-72
2021/04/22 04:12:32;;;;;;;9.07;2.70;;;7.90;56.80;;;;;;5001242;28;20054;-73
2021/04/22 04:14:58;;;;;;;9.90;3.28;;;7.90;56.90;;;;;;5000626;28;20363;-72
2021/04/22 04:17:24;;;;;;;10.85;3.40;;;7.90;56.90;;;;;;5017650;28;20065;-72
2021/04/22 04:19:50;;;;;;;10.07;3.33;;;7.80;56.90;;;;;;5017103;28;20050;-71
2021/04/22 04:22:16;;;;;;;9.07;3.10;;;7.80;57.00;;;;;;5018096;28;20059;-72
2021/04/22 04:24:42;;;;;;;11.02;2.85;;;7.80;57.00;;;;;;5000962;28;20101;-72
2021/04/22 04:27:08;;;;;;;8.80;3.08;;;7.90;57.10;;;;;;5017695;28;20045;-71
2021/04/22 04:29:33;;;;;;;8.88;2.97;;;7.80;57.00;;;;;;5016925;28;20053;-72
2021/04/22 04:32:00;;;;;;;9.90;2.63;;;7.80;57.10;;;;;;5016374;28;20056;-72
2021/04/22 04:34:26;;;;;;;12.13;3.53;;;7.80;57.20;;;;;;5016946;28;20046;-72
2021/04/22 04:36:52;;;;;;;9.55;2.53;;;7.80;57.20;;;;;;5016754;28;20132;-71
2021/04/22 04:39:18;;;;;;;13.18;3.28;;;7.80;57.20;;;;;;5016195;28;20034;-72
2021/04/22 04:41:44;;;;;;;12.60;2.97;;;7.80;57.30;;;;;;5016048;28;20049;-72
2021/04/22 04:44:10;;;;;;;8.93;2.83;;;7.80;57.20;;;;;;5015954;28;20064;-71
2021/04/22 04:46:36;;;;;;;12.25;3.47;;;7.80;57.30;;;;;;5015154;28;20120;-71
2021/04/22 04:49:03;;;;;;;10.63;3.15;;;7.80;57.30;;;;;;5014822;28;20137;-72
2021/04/22 04:51:29;;;;;;;8.20;2.88;;;7.80;57.30;;;;;;5013823;28;20046;-71
2021/04/22 04:53:56;;;;;;;9.88;2.72;;;7.80;57.20;;;;;;5014447;28;20095;-74
2021/04/22 04:56:22;;;;;;;10.35;2.80;;;7.80;57.30;;;;;;4994541;28;20057;-73
2021/04/22 04:58:52;;;;;;;9.73;3.20;;;7.80;57.20;;;;;;4994334;28;20046;-72
2021/04/22 05:01:18;;;;;;;8.98;2.92;;;7.80;57.20;;;;;;5010740;28;20037;-73
2021/04/22 05:03:44;;;;;;;8.43;2.22;;;7.90;57.30;;;;;;5011338;28;20430;-73
2021/04/22 05:06:10;;;;;;;9.50;3.08;;;8.00;57.30;;;;;;4992834;28;20394;-71
2021/04/22 05:08:37;;;;;;;11.00;3.25;;;7.90;57.30;;;;;;5009675;28;20486;-72
2021/04/22 05:11:08;;;;;;;14.27;4.40;;;7.90;58.00;;;;;;4993588;28;20046;-71
2021/04/22 05:13:35;;;;;;;9.77;3.25;;;7.90;57.30;;;;;;5011099;28;20478;-72
2021/04/22 05:16:00;;;;;;;10.98;3.22;;;7.90;57.20;;;;;;5010660;28;20111;-73
2021/04/22 05:18:27;;;;;;;7.82;2.60;;;7.90;57.00;;;;;;4995312;28;20052;-72
2021/04/22 05:20:53;;;;;;;9.65;3.00;;;8.00;56.90;;;;;;4996950;28;20120;-72
2021/04/22 05:23:21;;;;;;;9.32;3.40;;;8.00;57.00;;;;;;5012312;28;20121;-72
2021/04/22 05:25:48;;;;;;;9.23;2.92;;;8.00;56.90;;;;;;5030885;28;20068;-72
2021/04/22 05:28:14;;;;;;;10.23;3.33;;;8.00;56.90;;;;;;5014896;28;20046;-70
2021/04/22 05:30:41;;;;;;;12.90;3.40;;;8.00;56.70;;;;;;5033141;28;20044;-72
2021/04/22 05:33:08;;;;;;;11.70;3.45;;;8.00;56.50;;;;;;5014493;28;20042;-73
2021/04/22 05:35:35;;;;;;;9.13;3.47;;;8.00;56.60;;;;;;5014855;28;20272;-70
2021/04/22 05:38:01;;;;;;;11.73;2.83;;;8.00;56.60;;;;;;5015268;28;20144;-71
2021/04/22 05:40:26;;;;;;;9.73;3.17;;;8.00;56.50;;;;;;5014164;28;20532;-71
2021/04/22 05:42:52;;;;;;;9.27;2.55;;;8.00;56.30;;;;;;5032582;28;20128;-72
2021/04/22 05:45:20;;;;;;;11.00;2.72;;;8.00;56.40;;;;;;4998346;28;20109;-73
2021/04/22 05:47:46;;;;;;;12.57;3.40;;;8.00;56.30;;;;;;5015509;28;20041;-72
2021/04/22 05:50:14;;;;;;;10.90;3.17;;;8.10;56.30;;;;;;5015381;28;20038;-73
2021/04/22 05:52:42;;;;;;;12.55;3.10;;;8.10;56.30;;;;;;4999211;28;20394;-72
2021/04/22 05:55:08;;;;;;;6.05;3.30;;;8.10;56.30;;;;;;5015621;28;20053;-74
2021/04/22 05:57:34;;;;;;;13.00;3.00;;;8.10;56.30;;;;;;5034753;28;20069;-71
2021/04/22 06:00:00;;;;;;;9.35;3.05;;;8.10;56.30;;;;;;5019908;28;20050;-71
2021/04/22 06:02:26;;;;;;;10.13;3.22;;;8.10;56.30;;;;;;5018805;28;20060;-71
2021/04/22 06:04:51;;;;;;;13.18;3.42;;;8.20;56.30;;;;;;5037414;28;20045;-72
2021/04/22 06:07:17;;;;;;;10.43;3.20;;;8.20;56.30;;;;;;5019318;28;20152;-72
2021/04/22 06:09:45;;;;;;;11.93;3.85;;;8.20;56.20;;;;;;5019496;28;20099;-70
2021/04/22 06:12:14;;;;;;;8.63;3.08;;;8.20;56.10;;;;;;5036916;28;20147;-72
2021/04/22 06:14:40;;;;;;;9.95;2.75;;;8.20;56.20;;;;;;5037232;28;20041;-71
2021/04/22 06:17:06;;;;;;;9.02;3.00;;;8.20;56.30;;;;;;5019500;28;20371;-71
2021/04/22 06:19:32;;;;;;;7.63;2.95;;;8.30;56.30;;;;;;5018457;28;20544;-72
2021/04/22 06:21:58;;;;;;;8.02;2.75;;;8.30;56.10;;;;;;5037042;28;20053;-71
2021/04/22 06:24:24;;;;;;;12.95;3.00;;;8.30;56.20;;;;;;5002695;28;20447;-72
2021/04/22 06:26:51;;;;;;;8.70;3.40;;;8.30;56.10;;;;;;4987803;28;20069;-71
2021/04/22 06:29:17;;;;;;;10.52;2.92;;;8.40;55.90;;;;;;5036899;28;20058;-72
2021/04/22 06:31:45;;;;;;;12.70;3.22;;;8.40;55.90;;;;;;5020263;28;20110;-71
2021/04/22 06:34:12;;;;;;;8.15;2.75;;;8.40;55.80;;;;;;5020800;28;20182;-72
2021/04/22 06:36:38;;;;;;;9.35;3.53;;;8.40;55.80;;;;;;5020361;28;20045;-71
2021/04/22 06:39:07;;;;;;;11.07;3.28;;;8.40;56.40;;;;;;5020631;28;20045;-71
2021/04/22 06:41:41;;;;;;;11.93;3.10;;;8.40;55.60;;;;;;5037844;28;20066;-71
2021/04/22 06:44:07;;;;;;;11.70;4.07;;;8.40;55.60;;;;;;5020712;28;20048;-70
2021/04/22 06:46:35;;;;;;;15.63;4.75;;;8.40;55.60;;;;;;5004968;28;20096;-71
2021/04/22 06:49:01;;;;;;;10.73;3.03;;;8.50;55.60;;;;;;5039188;28;20402;-71
2021/04/22 06:51:30;;;;;;;10.13;2.83;;;8.50;55.60;;;;;;5005194;28;20057;-71
2021/04/22 06:53:56;;;;;;;11.38;3.40;;;8.50;55.50;;;;;;4988400;28;20428;-72
2021/04/22 06:56:22;;;;;;;11.90;2.97;;;8.50;55.50;;;;;;5003826;28;20049;-71
2021/04/22 06:58:47;;;;;;;11.02;3.22;;;8.60;55.50;;;;;;5021480;28;20042;-72
2021/04/22 07:01:13;;;;;;;9.93;3.85;;;8.60;55.40;;;;;;5020952;28;20366;-73
2021/04/22 07:03:39;;;;;;;13.25;3.88;;;8.70;55.50;;;;;;5003833;28;20107;-71
2021/04/22 07:06:05;;;;;;;12.77;3.28;;;8.60;55.50;;;;;;5020974;28;20367;-72
2021/04/22 07:08:33;;;;;;;8.82;3.05;;;8.70;55.40;;;;;;5036932;28;20068;-72
2021/04/22 07:10:59;;;;;;;10.23;3.20;;;8.80;55.40;;;;;;5020211;28;20053;-71
2021/04/22 07:13:25;;;;;;;11.00;3.28;;;8.80;55.30;;;;;;5019833;28;20390;-72
2021/04/22 07:15:50;;;;;;;10.95;3.40;;;8.80;55.00;;;;;;5020959;28;20041;-72
2021/04/22 07:18:16;;;;;;;11.73;3.25;;;8.90;55.20;;;;;;5020795;28;20053;-73
2021/04/22 07:21:03;;;;;;;13.50;3.83;;;8.90;55.20;;;;;;5024081;28;20053;-72
2021/04/22 07:23:48;;;;;;;10.27;3.72;;;9.00;55.00;;;;;;5008528;28;20045;-71
2021/04/22 07:26:34;;;;;;;10.18;3.53;;;9.00;54.90;;;;;;5032358;28;20046;-72
2021/04/22 07:29:01;;;;;;;8.98;3.38;;;9.00;54.70;;;;;;5042872;28;20045;-71
2021/04/22 07:31:26;;;;;;;11.85;3.65;;;9.10;54.90;;;;;;5050406;28;20033;-72
2021/04/22 07:33:52;;;;;;;8.90;3.53;;;9.10;54.90;;;;;;5037060;28;20132;-72
2021/04/22 07:36:18;;;;;;;11.18;4.32;;;9.20;54.80;;;;;;5036454;28;20454;-72
2021/04/22 07:38:44;;;;;;;11.15;3.30;;;9.20;54.90;;;;;;5049393;28;20041;-72
2021/04/22 07:41:10;;;;;;;10.30;3.53;;;9.30;54.80;;;;;;5014454;28;20089;-71
2021/04/22 07:43:36;;;;;;;10.63;3.50;;;9.40;54.80;;;;;;5011226;28;20430;-71
2021/04/22 07:46:02;;;;;;;8.82;3.42;;;9.40;54.50;;;;;;5014450;28;20108;-71
2021/04/22 07:48:28;;;;;;;8.20;2.92;;;9.40;54.20;;;;;;5027977;28;20041;-75
2021/04/22 07:50:53;;;;;;;9.07;3.90;;;9.40;53.90;;;;;;5010989;28;20025;-72
2021/04/22 07:53:19;;;;;;;8.93;3.22;;;9.50;53.80;;;;;;5031591;28;20485;-71
2021/04/22 07:55:45;;;;;;;12.23;3.60;;;9.50;54.50;;;;;;5044603;28;20041;-71
2021/04/22 07:58:15;;;;;;;7.32;2.80;;;9.60;53.80;;;;;;5014226;28;20099;-73
2021/04/22 08:00:42;;;;;;;5.68;2.17;;;9.60;53.30;;;;;;5028147;28;20034;-70
2021/04/22 08:03:08;;;;;;;8.85;3.13;;;9.80;55.20;;;;;;5026925;28;20512;-73
2021/04/22 08:05:36;;;;;;;8.75;3.22;;;10.10;54.20;;;;;;5023892;28;20051;-71
2021/04/22 08:08:07;;;;;;;8.75;3.10;;;10.20;52.80;;;;;;5039166;28;20049;-74
2021/04/22 08:10:34;;;;;;;9.50;3.38;;;10.10;52.10;;;;;;5023413;28;20045;-74
2021/04/22 08:13:02;;;;;;;6.47;3.00;;;10.20;52.10;;;;;;5023941;28;20055;-75
2021/04/22 08:15:28;;;;;;;9.20;3.47;;;10.30;53.00;;;;;;5039550;28;20139;-77
2021/04/22 08:17:54;;;;;;;7.50;3.88;;;10.30;52.00;;;;;;5023505;28;20516;-75
2021/04/22 08:20:24;;;;;;;9.77;3.40;;;10.40;51.80;;;;;;5039315;28;20052;-80
2021/04/22 08:22:54;;;;;;;11.48;4.45;;;10.40;52.10;;;;;;5007347;28;20383;-75
2021/04/22 08:25:24;;;;;;;10.45;3.50;;;10.40;51.70;;;;;;5005988;28;20127;-74
2021/04/22 08:27:51;;;;;;;8.90;2.75;;;10.50;51.20;;;;;;5005730;28;20040;-76
2021/04/22 08:30:19;;;;;;;8.30;3.47;;;10.40;50.80;;;;;;5001634;28;20041;-73
2021/04/22 08:32:45;;;;;;;11.27;2.95;;;10.40;50.80;;;;;;5055509;28;20128;-74
2021/04/22 08:35:11;;;;;;;7.55;3.42;;;10.40;50.70;;;;;;5038282;28;20036;-76
2021/04/22 08:37:38;;;;;;;10.90;3.47;;;10.40;50.70;;;;;;5021865;28;20045;-75
2021/04/22 08:40:05;;;;;;;7.45;3.60;;;10.50;50.90;;;;;;5014726;28;20470;-75
2021/04/22 08:42:32;;;;;;;7.38;3.40;;;10.50;50.80;;;;;;5000059;28;20064;-79
2021/04/22 08:44:59;;;;;;;10.18;3.85;;;10.50;50.70;;;;;;5031746;28;20041;-75
2021/04/22 08:47:28;;;;;;;9.05;3.03;;;10.60;50.80;;;;;;5021686;28;20507;-73
2021/04/22 08:49:55;;;;;;;8.85;3.30;;;10.60;50.50;;;;;;5017313;28;20037;-75
2021/04/22 08:52:21;;;;;;;9.70;3.50;;;10.60;50.60;;;;;;5032739;28;20049;-76
2021/04/22 08:54:46;;;;;;;7.35;3.40;;;10.60;50.40;;;;;;5001121;28;20508;-75
2021/04/22 08:57:12;;;;;;;9.88;3.80;;;10.60;50.40;;;;;;5022013;28;20041;-75
2021/04/22 08:59:38;;;;;;;8.85;3.60;;;10.60;50.50;;;;;;5003814;28;20043;-75
2021/04/22 09:02:04;;;;;;;9.60;3.22;;;10.60;50.30;;;;;;5021993;28;20041;-75
2021/04/22 09:04:32;;;;;;;9.32;3.42;;;10.60;50.30;;;;;;5009595;28;20041;-73
2021/04/22 09:06:58;;;;;;;10.30;3.03;;;10.60;50.50;;;;;;5012767;28;20145;-74
2021/04/22 09:09:23;;;;;;;8.90;2.55;;;10.60;50.50;;;;;;5000643;28;20048;-74
2021/04/22 09:11:49;;;;;;;7.68;2.70;;;10.60;50.30;;;;;;5034285;28;20092;-74
2021/04/22 09:14:17;;;;;;;9.82;3.10;;;10.60;50.10;;;;;;5000150;28;20049;-74
2021/04/22 09:16:43;;;;;;;8.48;3.17;;;10.50;50.00;;;;;;5014034;28;20033;-77
2021/04/22 09:19:12;;;;;;;6.85;3.63;;;10.50;50.20;;;;;;5017124;28;20065;-74
2021/04/22 09:21:41;;;;;;;8.60;3.38;;;10.60;50.30;;;;;;5013006;28;20113;-75
2021/04/22 09:24:12;;;;;;;7.32;3.80;;;10.60;51.00;;;;;;5001481;28;20120;-75
2021/04/22 09:26:44;;;;;;;11.88;3.97;;;10.70;50.30;;;;;;5037304;28;20049;-76
2021/04/22 09:29:13;;;;;;;7.53;3.20;;;10.70;50.30;;;;;;5036911;28;20057;-74
2021/04/22 09:31:39;;;;;;;7.57;2.95;;;10.80;50.40;;;;;;5021534;28;20064;-76
2021/04/22 09:34:13;;;;;;;8.93;3.53;;;10.80;50.40;;;;;;5005580;28;20045;-77
2021/04/22 09:36:39;;;;;;;8.65;4.03;;;10.80;50.30;;;;;;5004611;28;20453;-77
2021/04/22 09:39:05;;;;;;;5.32;2.58;;;10.90;50.40;;;;;;5038518;28;20044;-75
2021/04/22 09:41:33;;;;;;;9.65;3.78;;;10.90;50.50;;;;;;4987483;28;20052;-77
2021/04/22 09:44:05;;;;;;;11.63;3.72;;;10.90;50.50;;;;;;5017285;28;20119;-74
2021/04/22 09:46:34;;;;;;;8.20;3.85;;;10.90;50.60;;;;;;5032507;28;20123;-78
2021/04/22 09:49:14;;;;;;;10.27;3.90;;;10.90;50.50;;;;;;5037816;28;20041;-74
2021/04/22 09:51:40;;;;;;;11.50;4.70;;;10.90;50.50;;;;;;5028742;28;20080;-75
2021/04/22 09:54:10;;;;;;;6.10;2.80;;;10.90;50.50;;;;;;5004478;28;20104;-77
2021/04/22 09:56:46;;;;;;;6.40;2.53;;;11.00;50.60;;;;;;5051244;28;20040;-81
2021/04/22 09:59:16;;;;;;;6.82;3.03;;;11.00;50.60;;;;;;4999227;28;20091;-80
2021/04/22 10:01:43;;;;;;;7.22;2.80;;;11.10;50.60;;;;;;4998901;28;20083;-74
2021/04/22 10:04:08;;;;;;;6.70;3.67;;;11.10;50.30;;;;;;5009836;28;20041;-70
2021/04/22 10:06:44;;;;;;;5.68;3.17;;;11.20;50.30;;;;;;5033525;28;20041;-78
2021/04/22 10:09:13;;;;;;;9.02;3.38;;;11.20;50.30;;;;;;5008709;28;20033;-75
2021/04/22 10:11:48;;;;;;;6.43;2.97;;;11.30;50.50;;;;;;4993565;28;20049;-78
2021/04/22 10:14:17;;;;;;;8.05;3.33;;;11.40;50.40;;;;;;5014071;28;20048;-78
2021/04/22 10:16:43;;;;;;;6.25;2.65;;;11.50;50.40;;;;;;4999245;28;20113;-78
2021/04/22 10:19:18;;;;;;;6.60;2.85;;;11.50;50.40;;;;;;5032615;28;20144;-77
2021/04/22 10:21:43;;;;;;;7.25;3.58;;;11.60;50.40;;;;;;5015041;28;20485;-79
2021/04/22 10:24:12;;;;;;;6.75;2.85;;;11.60;50.40;;;;;;5015636;28;20117;-80
2021/04/22 10:26:39;;;;;;;7.03;3.47;;;11.70;50.30;;;;;;4983641;28;20056;-75
2021/04/22 10:29:06;;;;;;;6.97;3.15;;;11.80;50.30;;;;;;5016718;28;20084;-76
2021/04/22 10:31:32;;;;;;;6.97;3.63;;;11.90;50.40;;;;;;4999528;28;20064;-77
2021/04/22 10:33:58;;;;;;;7.70;3.05;;;12.20;50.60;;;;;;5017798;28;20041;-75
2021/04/22 10:36:24;;;;;;;8.63;3.80;;;12.40;50.00;;;;;;4992722;28;20077;-75
2021/04/22 10:38:53;;;;;;;7.05;2.50;;;12.50;49.90;;;;;;5012921;28;20067;-77
2021/04/22 10:41:20;;;;;;;10.70;3.40;;;12.50;49.40;;;;;;5001498;28;20056;-80
2021/04/22 10:43:46;;;;;;;6.88;3.03;;;12.50;48.90;;;;;;5000460;28;20042;-77
2021/04/22 10:46:12;;;;;;;8.57;2.97;;;12.60;48.90;;;;;;5035472;28;20045;-80
2021/04/22 10:48:38;;;;;;;9.05;2.92;;;12.60;48.40;;;;;;5037504;28;20049;-75
2021/04/22 10:51:04;;;;;;;6.60;3.17;;;12.60;47.90;;;;;;5015680;28;20144;-73
2021/04/22 10:53:30;;;;;;;10.32;2.90;;;12.70;50.20;;;;;;5016855;28;20115;-83
2021/04/22 10:55:56;;;;;;;9.30;3.17;;;13.10;50.80;;;;;;5014499;28;20042;-76
2021/04/22 10:58:28;;;;;;;10.32;3.75;;;13.20;48.90;;;;;;5016375;28;20068;-75
2021/04/22 11:00:55;;;;;;;;;;;13.30;47.70;;;;;;5009103;28;20099;-75
2021/04/22 11:03:34;;;;;;;5.55;2.50;;;13.30;46.60;;;;;;5019217;28;20374;-77
2021/04/22 11:06:05;;;;;;;6.85;2.60;;;13.30;47.20;;;;;;5006680;28;20049;-75
2021/04/22 11:08:50;;;;;;;5.43;2.50;;;13.30;47.10;;;;;;4997992;28;20033;-76
2021/04/22 11:11:29;;;;;;;5.50;2.93;;;13.30;46.50;;;;;;5014039;28;20042;-79
2021/04/22 11:14:11;;;;;;;7.95;2.97;;;13.20;46.80;;;;;;5022042;28;20292;-76
2021/04/22 11:16:38;;;;;;;10.65;3.03;;;13.20;46.70;;;;;;5023854;28;20046;-78
2021/04/22 11:19:18;;;;;;;9.40;3.30;;;13.20;47.10;;;;;;5026386;28;20140;-77
2021/04/22 11:21:54;;;;;;;7.15;3.22;;;13.20;46.90;;;;;;5008957;28;20052;-75
2021/04/22 11:24:31;;;;;;;8.48;2.97;;;13.20;46.90;;;;;;5042405;28;20050;-75
2021/04/22 11:27:10;;;;;;;7.45;2.55;;;13.20;46.70;;;;;;5056448;28;20044;-80
2021/04/22 11:29:48;;;;;;;5.53;2.25;;;13.30;47.30;;;;;;5016903;28;20154;-77
2021/04/22 11:32:29;;;;;;;5.72;2.40;;;13.40;46.40;;;;;;5012043;28;20388;-74
2021/04/22 11:35:10;;;;;;;5.22;2.25;;;13.50;46.30;;;;;;5023629;28;20052;-80
2021/04/22 11:37:42;;;;;;;5.70;2.28;;;13.60;46.10;;;;;;5035602;28;20040;-76
2021/04/22 11:40:23;;;;;;;5.78;2.83;;;13.70;46.30;;;;;;5008291;28;20110;-77
2021/04/22 11:42:50;;;;;;;6.70;2.50;;;13.70;45.20;;;;;;5039114;28;20039;-78
2021/04/22 11:45:25;;;;;;;4.97;2.40;;;13.70;45.00;;;;;;5007738;28;20049;-76
2021/04/22 11:48:02;;;;;;;7.78;2.50;;;13.70;45.20;;;;;;5023479;28;20037;-73
2021/04/22 11:50:44;;;;;;;6.53;2.38;;;13.70;44.90;;;;;;5022453;28;20044;-73
2021/04/22 11:53:10;;;;;;;6.38;3.72;;;13.80;44.70;;;;;;5042730;28;20110;-72
2021/04/22 11:55:40;;;;;;;4.70;2.75;;;14.20;46.70;;;;;;5040379;28;20049;-75
2021/04/22 11:58:11;;;;;;;3.85;2.30;;;14.50;45.30;;;;;;5024279;28;20041;-75
2021/04/22 12:00:54;;;;;;;9.07;2.97;;;14.70;44.70;;;;;;5008790;28;20053;-75
2021/04/22 12:03:32;;;;;;;6.15;2.97;;;14.70;43.90;;;;;;5008467;28;20096;-73
2021/04/22 12:06:02;;;;;;;7.75;2.90;;;14.70;43.70;;;;;;5023971;28;20477;-78
2021/04/22 12:08:34;;;;;;;7.30;2.70;;;14.70;43.70;;;;;;5022501;28;20048;-78
2021/04/22 12:11:04;;;;;;;5.63;2.30;;;14.70;43.80;;;;;;5036270;28;20543;-72
2021/04/22 12:13:33;;;;;;;5.70;2.72;;;14.70;43.20;;;;;;5036046;28;20041;-74
2021/04/22 12:15:59;;;;;;;7.85;3.42;;;14.70;43.60;;;;;;5053905;28;20122;-77
2021/04/22 12:18:28;;;;;;;11.25;5.07;;;14.60;43.50;;;;;;5054605;28;20041;-74
2021/04/22 12:21:08;;;;;;;6.70;3.47;;;14.60;44.40;;;;;;5020833;28;20071;-73
2021/04/22 12:23:35;;;;;;;6.85;3.22;;;14.90;44.20;;;;;;5016314;28;20112;-73
2021/04/22 12:26:21;;;;;;;7.55;3.05;;;15.00;43.50;;;;;;5001056;28;20065;-76
2021/04/22 12:28:51;;;;;;;5.60;2.83;;;15.20;42.00;;;;;;5001356;28;20049;-76
2021/04/22 12:31:32;;;;;;;5.75;3.00;;;15.20;41.90;;;;;;5000918;28;20486;-76
2021/04/22 12:34:10;;;;;;;9.45;3.97;;;15.20;41.90;;;;;;5001716;28;20492;-76
2021/04/22 12:36:36;;;;;;;8.18;3.03;;;15.10;42.60;;;;;;5002674;28;20100;-76
2021/04/22 12:39:06;;;;;;;9.18;3.35;;;15.10;42.50;;;;;;4984654;28;20045;-81
2021/04/22 12:41:34;;;;;;;9.55;3.10;;;15.10;42.20;;;;;;5000596;28;20046;-76
2021/04/22 12:44:00;;;;;;;7.38;2.50;;;15.10;42.00;;;;;;4999725;28;20057;-76
2021/04/22 12:46:29;;;;;;;8.02;3.33;;;15.10;41.70;;;;;;5017206;28;20084;-75
2021/04/22 12:48:59;;;;;;;8.52;2.85;;;15.30;41.70;;;;;;4985668;28;20513;-76
2021/04/22 12:51:37;;;;;;;8.38;3.03;;;15.30;41.40;;;;;;5016896;28;20042;-75